Time;durP1;ratioP1;P1;durP2;ratioP2;P2;SDS_P1;SDS_P2;PMS_P1;PMS_P2;Temp;Humidity;BMP_temperature;BMP_pressure;BME280_temperature;BME280_humidity;BME280_pressure;Samples;Min_cycle;Max_cycle;Signal;HPM_P1;HPM_P2
2022/04/16 00:01:49;;;;;;;2.20;1.92;;;;;;;11.61;50.24;97598.94;6275740;22;20024;-77
2022/04/16 00:04:16;;;;;;;1.73;1.63;;;;;;;11.60;50.33;97602.56;6275444;22;20089;-77
2022/04/16 00:06:44;;;;;;;2.42;1.60;;;;;;;11.61;50.94;97609.41;6274173;22;20095;-77
2022/04/16 00:09:12;;;;;;;2.30;2.05;;;;;;;11.62;50.24;97600.59;6275326;22;20432;-77
2022/04/16 00:11:39;;;;;;;1.70;1.60;;;;;;;11.59;50.43;97598.28;6275590;22;20379;-77
2022/04/16 00:14:07;;;;;;;1.42;1.33;;;;;;;11.62;51.70;97596.19;6278182;22;20019;-77
2022/04/16 00:16:36;;;;;;;2.40;2.13;;;;;;;11.63;50.75;97602.22;6276106;22;20051;-77
2022/04/16 00:19:03;;;;;;;2.45;1.90;;;;;;;11.61;50.43;97599.78;6278405;22;20410;-78
2022/04/16 00:21:31;;;;;;;3.67;3.05;;;;;;;11.59;50.44;97603.53;6278225;22;20352;-77
2022/04/16 00:23:59;;;;;;;3.25;2.60;;;;;;;11.55;50.65;97600.44;6278898;22;20020;-77
2022/04/16 00:26:27;;;;;;;3.20;2.42;;;;;;;11.58;51.01;97607.13;6278560;22;20020;-77
2022/04/16 00:28:55;;;;;;;2.20;2.00;;;;;;;11.60;50.84;97598.13;6279156;22;20355;-77
2022/04/16 00:31:22;;;;;;;3.58;1.98;;;;;;;11.61;51.66;97602.41;6278868;22;20038;-77
2022/04/16 00:33:52;;;;;;;2.22;2.00;;;;;;;11.69;51.25;97606.78;6277731;22;20032;-77
2022/04/16 00:36:20;;;;;;;3.08;2.28;;;;;;;11.65;50.67;97600.25;6276035;22;20111;-77
2022/04/16 00:38:48;;;;;;;2.25;2.05;;;;;;;11.52;50.75;97601.59;6280769;22;20027;-77
2022/04/16 00:41:15;;;;;;;2.30;1.88;;;;;;;11.41;51.05;97604.50;6280924;22;20028;-77
2022/04/16 00:43:43;;;;;;;2.15;2.00;;;;;;;11.30;51.37;97596.97;6278599;22;20020;-77
2022/04/16 00:46:10;;;;;;;2.67;2.13;;;;;;;11.22;51.71;97584.75;6276458;22;20024;-77
2022/04/16 00:48:38;;;;;;;2.05;1.83;;;;;;;11.17;51.79;97591.41;6277140;22;20019;-77
2022/04/16 00:51:08;;;;;;;3.92;2.67;;;;;;;11.14;52.87;97593.34;6277431;22;20023;-77
2022/04/16 00:53:36;;;;;;;2.20;2.00;;;;;;;11.12;52.26;97584.88;6288084;22;20071;-77
2022/04/16 00:56:06;;;;;;;2.50;2.30;;;;;;;11.04;52.04;97586.66;6303816;22;20020;-76
2022/04/16 00:58:33;;;;;;;2.80;2.15;;;;;;;10.95;52.17;97571.94;6289752;22;20023;-77
2022/04/16 01:01:01;;;;;;;1.75;1.65;;;;;;;10.83;52.33;97574.88;6277558;22;20028;-77
2022/04/16 01:03:29;;;;;;;2.00;1.80;;;;;;;10.69;52.15;97571.09;6277069;22;20027;-77
2022/04/16 01:05:58;;;;;;;2.13;1.90;;;;;;;10.58;52.68;97573.16;6276435;22;20020;-76
2022/04/16 01:08:27;;;;;;;2.22;2.03;;;;;;;10.48;53.20;97578.50;6276885;22;20016;-77
2022/04/16 01:10:54;;;;;;;2.35;2.15;;;;;;;10.41;52.97;97580.13;6277271;22;20031;-77
2022/04/16 01:13:22;;;;;;;2.40;2.08;;;;;;;10.36;53.42;97575.34;6277278;22;20394;-77
2022/04/16 01:15:49;;;;;;;2.88;2.20;;;;;;;10.30;53.21;97576.78;6276646;22;20355;-77
2022/04/16 01:18:17;;;;;;;2.30;2.10;;;;;;;10.25;53.47;97581.59;6276970;22;20023;-77
2022/04/16 01:20:45;;;;;;;2.58;2.38;;;;;;;10.18;53.59;97587.63;6277342;22;20026;-77
2022/04/16 01:23:15;;;;;;;2.10;1.90;;;;;;;10.12;54.16;97591.66;6277721;22;20026;-77
2022/04/16 01:25:44;;;;;;;2.47;1.85;;;;;;;10.09;54.00;97586.75;6277641;22;20355;-77
2022/04/16 01:28:12;;;;;;;2.90;2.20;;;;;;;10.07;54.07;97591.28;6276725;22;20030;-76
2022/04/16 01:30:40;;;;;;;3.25;2.47;;;;;;;9.97;53.86;97588.81;6276983;22;20027;-77
2022/04/16 01:33:07;;;;;;;2.47;2.28;;;;;;;9.85;54.51;97580.41;6277063;22;20024;-77
2022/04/16 01:35:35;;;;;;;4.65;1.80;;;;;;;9.80;54.98;97581.84;6277004;22;20015;-77
2022/04/16 01:38:06;;;;;;;3.95;2.10;;;;;;;9.79;54.87;97582.81;6276012;22;20019;-77
2022/04/16 01:40:36;;;;;;;4.45;2.00;;;;;;;9.81;55.57;97584.28;6276928;22;20039;-77
2022/04/16 01:43:03;;;;;;;2.83;2.15;;;;;;;9.86;55.60;97584.66;6276996;22;20016;-77
2022/04/16 01:45:31;;;;;;;2.83;2.25;;;;;;;9.96;55.61;97586.34;6276583;22;20016;-77
2022/04/16 01:47:59;;;;;;;2.78;1.90;;;;;;;10.03;54.62;97588.16;6276083;22;20098;-77
2022/04/16 01:50:28;;;;;;;2.95;2.20;;;;;;;10.02;54.81;97581.34;6276268;22;20016;-77
2022/04/16 01:52:56;;;;;;;2.70;2.10;;;;;;;9.98;54.33;97589.63;6276897;22;20020;-77
2022/04/16 01:55:23;;;;;;;2.13;1.92;;;;;;;9.90;54.05;97596.44;6276801;22;20363;-77
2022/04/16 01:57:53;;;;;;;2.28;2.08;;;;;;;9.82;53.44;97590.34;6275965;22;20023;-77
2022/04/16 02:00:23;;;;;;;4.25;2.10;;;;;;;9.64;53.87;97588.59;6276768;22;20358;-77
2022/04/16 02:02:50;;;;;;;2.00;1.90;;;;;;;9.55;54.85;97594.69;6276846;22;20019;-76
2022/04/16 02:05:18;;;;;;;3.10;2.38;;;;;;;9.48;54.54;97591.84;6276711;22;20019;-77
2022/04/16 02:07:45;;;;;;;2.35;2.15;;;;;;;9.40;54.87;97589.22;6275425;22;20020;-77
2022/04/16 02:10:16;;;;;;;2.60;2.40;;;;;;;9.40;55.77;97591.81;6276812;22;20023;-77
2022/04/16 02:12:44;;;;;;;3.53;2.65;;;;;;;9.42;55.57;97584.66;6276347;22;20020;-77
2022/04/16 02:15:13;;;;;;;2.45;2.13;;;;;;;9.48;56.59;97581.44;6276470;22;20023;-77
2022/04/16 02:17:41;;;;;;;2.90;2.53;;;;;;;9.57;56.01;97581.50;6275219;22;20047;-77
2022/04/16 02:20:10;;;;;;;4.38;2.42;;;;;;;9.62;54.80;97579.25;6276221;22;20455;-77
2022/04/16 02:22:42;;;;;;;2.63;2.38;;;;;;;9.59;55.41;97584.78;6276641;22;20023;-77
2022/04/16 02:25:11;;;;;;;2.85;2.65;;;;;;;9.56;55.19;97585.09;6276434;22;20020;-77
2022/04/16 02:27:39;;;;;;;2.33;2.13;;;;;;;9.57;55.73;97574.50;6275458;22;20052;-76
2022/04/16 02:30:09;;;;;;;2.40;2.20;;;;;;;9.57;54.89;97584.94;6276341;22;20038;-77
2022/04/16 02:32:39;;;;;;;2.70;2.50;;;;;;;9.52;54.93;97583.75;6276731;22;20098;-77
2022/04/16 02:35:07;;;;;;;2.75;2.55;;;;;;;9.46;55.10;97590.38;6276281;22;20020;-77
2022/04/16 02:37:36;;;;;;;2.70;2.47;;;;;;;9.39;54.94;97589.34;6275701;22;20015;-77
2022/04/16 02:40:05;;;;;;;3.20;2.25;;;;;;;9.33;55.75;97590.75;6276337;22;20019;-76
2022/04/16 02:42:34;;;;;;;2.63;2.30;;;;;;;9.39;56.27;97584.13;6276457;22;20371;-77
2022/04/16 02:47:47;;;;;;;3.22;2.92;;;;;;;9.27;55.55;97586.13;6275380;22;20019;-77
2022/04/16 02:50:15;;;;;;;2.78;2.55;;;;;;;9.14;55.51;97575.28;6276127;22;20031;-77
2022/04/16 02:52:46;;;;;;;2.85;2.65;;;;;;;9.00;55.58;97580.03;6276211;22;20023;-77
2022/04/16 02:55:15;;;;;;;3.00;2.70;;;;;;;8.87;55.83;97589.97;6276268;22;20024;-77
2022/04/16 02:57:43;;;;;;;3.95;3.03;;;;;;;8.76;56.01;97593.59;6275023;22;20016;-77
2022/04/16 03:00:11;;;;;;;2.53;2.33;;;;;;;8.66;56.61;97598.88;6276085;22;20360;-77
2022/04/16 03:02:38;;;;;;;3.90;2.92;;;;;;;8.63;56.93;97593.94;6276205;22;20024;-77
2022/04/16 03:05:09;;;;;;;2.80;2.42;;;;;;;8.71;58.34;97602.81;6276192;22;20232;-77
2022/04/16 03:07:37;;;;;;;3.03;2.70;;;;;;;8.85;57.59;97604.91;6275399;22;20090;-77
2022/04/16 03:10:08;;;;;;;2.97;2.78;;;;;;;8.98;56.97;97609.78;6276101;22;20019;-77
2022/04/16 03:12:43;;;;;;;3.00;2.70;;;;;;;9.08;58.22;97602.72;6276236;22;20019;-77
2022/04/16 03:17:56;;;;;;;5.00;2.70;;;;;;;9.20;56.22;97600.72;6274493;22;20452;-77
2022/04/16 03:20:27;;;;;;;2.60;2.40;;;;;;;9.13;55.47;97603.09;6275956;22;20099;-77
2022/04/16 03:22:54;;;;;;;2.97;2.67;;;;;;;9.00;55.62;97606.06;6276180;22;20027;-77
2022/04/16 03:25:22;;;;;;;2.63;2.42;;;;;;;8.89;56.20;97606.25;6275810;22;20099;-77
2022/04/16 03:27:49;;;;;;;4.88;2.97;;;;;;;8.77;56.65;97608.25;6274871;22;20039;-77
2022/04/16 03:30:17;;;;;;;2.85;2.60;;;;;;;8.71;56.87;97608.84;6275677;22;20188;-77
2022/04/16 03:32:47;;;;;;;3.67;2.63;;;;;;;8.68;56.87;97603.94;6275832;22;20019;-77
2022/04/16 03:35:14;;;;;;;3.88;2.97;;;;;;;8.65;57.18;97597.22;6276174;22;20016;-77
2022/04/16 03:37:43;;;;;;;3.40;2.72;;;;;;;8.64;57.53;97589.59;6274807;22;20027;-77
2022/04/16 03:40:12;;;;;;;3.35;2.78;;;;;;;8.64;57.33;97587.78;6275630;22;20027;-76
2022/04/16 03:42:46;;;;;;;3.38;2.70;;;;;;;8.61;57.44;97589.84;6293087;22;20004;-76
2022/04/16 03:45:20;;;;;;;3.47;2.80;;;;;;;8.55;57.78;97586.06;6303350;22;20012;-76
2022/04/16 03:47:49;;;;;;;3.20;2.60;;;;;;;8.52;57.83;97591.53;6279664;22;20020;-77
2022/04/16 03:50:17;;;;;;;3.40;3.10;;;;;;;8.53;57.85;97593.19;6275681;22;20022;-77
2022/04/16 03:52:47;;;;;;;3.25;2.70;;;;;;;8.55;58.33;97591.28;6275946;22;20026;-77
2022/04/16 04:00:51;;;;;;;4.40;2.83;;;;;;;8.92;57.90;97610.34;6189567;22;20065;-77
2022/04/16 04:03:20;;;;;;;4.43;3.20;;;;;;;9.05;57.85;97601.25;6275907;22;20020;-77
2022/04/16 04:05:49;;;;;;;4.60;3.40;;;;;;;9.17;57.46;97601.03;6274905;22;20023;-77
2022/04/16 04:08:18;;;;;;;5.75;3.20;;;;;;;9.27;57.37;97610.41;6274217;22;20111;-79
2022/04/16 04:10:46;;;;;;;4.07;3.20;;;;;;;9.35;57.52;97604.44;6275540;22;20022;-79
2022/04/16 04:13:14;;;;;;;4.10;3.45;;;;;;;9.44;57.02;97608.75;6275445;22;20012;-79
2022/04/16 04:15:41;;;;;;;3.70;3.20;;;;;;;9.52;56.85;97615.00;6276356;22;20022;-79
2022/04/16 04:18:09;;;;;;;3.72;3.42;;;;;;;9.58;56.76;97611.81;6274712;22;20023;-79
2022/04/16 04:20:37;;;;;;;3.33;3.03;;;;;;;9.61;56.02;97624.53;6275508;22;20490;-79
2022/04/16 04:23:05;;;;;;;3.40;2.88;;;;;;;9.62;56.55;97623.53;6275896;22;20019;-79
2022/04/16 04:25:34;;;;;;;3.30;3.00;;;;;;;9.61;56.01;97619.31;6275230;22;20015;-79
2022/04/16 04:28:02;;;;;;;3.92;3.20;;;;;;;9.53;56.40;97624.44;6274769;22;20026;-79
2022/04/16 04:30:30;;;;;;;3.75;2.97;;;;;;;9.47;57.06;97623.28;6275632;22;20023;-79
2022/04/16 04:32:58;;;;;;;3.63;2.95;;;;;;;9.52;57.56;97625.44;6275566;22;20028;-79
2022/04/16 04:35:27;;;;;;;4.10;3.08;;;;;;;9.58;57.36;97635.25;6275582;22;20300;-79
2022/04/16 04:37:55;;;;;;;3.35;3.05;;;;;;;9.64;56.95;97637.25;6274796;22;20038;-79
2022/04/16 04:40:23;;;;;;;3.20;2.80;;;;;;;9.69;56.96;97638.44;6275545;22;20016;-79
2022/04/16 04:42:52;;;;;;;4.90;3.10;;;;;;;9.73;57.16;97638.97;6275733;22;20027;-79
2022/04/16 04:45:19;;;;;;;3.42;3.10;;;;;;;9.79;56.74;97640.94;6275209;22;20024;-79
2022/04/16 04:47:47;;;;;;;4.65;3.40;;;;;;;9.81;56.29;97646.81;6274971;22;20363;-79
2022/04/16 04:50:15;;;;;;;4.07;3.55;;;;;;;9.76;56.74;97641.25;6275535;22;20029;-79
2022/04/16 04:52:42;;;;;;;3.75;3.33;;;;;;;9.70;56.78;97639.25;6275695;22;20412;-79
2022/04/16 04:55:12;;;;;;;3.95;3.55;;;;;;;9.67;56.88;97636.97;6275586;22;20019;-79
2022/04/16 04:57:40;;;;;;;3.42;2.90;;;;;;;9.70;57.59;97640.06;6274806;22;20024;-79
2022/04/16 05:00:11;;;;;;;4.20;3.33;;;;;;;9.67;56.42;97636.97;6274803;22;20020;-79
2022/04/16 05:02:43;;;;;;;4.20;3.40;;;;;;;9.58;57.88;97632.66;6275812;22;20020;-79
2022/04/16 05:05:11;;;;;;;3.88;3.45;;;;;;;9.59;57.19;97631.66;6275539;22;20023;-79
2022/04/16 05:07:39;;;;;;;3.47;3.10;;;;;;;9.65;57.86;97631.88;6274246;22;20023;-79
2022/04/16 05:10:07;;;;;;;5.30;3.40;;;;;;;9.73;57.58;97633.75;6275392;22;20368;-80
2022/04/16 05:12:35;;;;;;;3.53;3.22;;;;;;;9.79;57.27;97640.94;6275263;22;20016;-79
2022/04/16 05:15:04;;;;;;;3.53;3.22;;;;;;;9.82;57.23;97638.06;6275613;22;20019;-79
2022/04/16 05:17:36;;;;;;;4.22;3.58;;;;;;;9.80;56.74;97637.38;6274430;22;20011;-79
2022/04/16 05:20:04;;;;;;;4.45;3.05;;;;;;;9.81;57.46;97641.63;6275100;22;20019;-79
2022/04/16 05:22:31;;;;;;;3.78;3.35;;;;;;;9.83;57.00;97644.88;6275305;22;20042;-79
2022/04/16 05:24:59;;;;;;;3.60;3.30;;;;;;;9.78;56.54;97641.13;6276238;22;20020;-79
2022/04/16 05:27:27;;;;;;;3.72;3.22;;;;;;;9.77;57.34;97647.28;6275769;22;20015;-79
2022/04/16 05:30:06;;;;;;;4.03;3.45;;;;;;;9.78;57.24;97656.75;6277230;22;20019;-79
2022/04/16 05:32:36;;;;;;;5.07;3.03;;;;;;;9.74;57.25;97656.22;6277336;22;20023;-79
2022/04/16 05:35:05;;;;;;;4.10;3.35;;;;;;;9.76;57.50;97659.50;6277381;22;20019;-79
2022/04/16 05:37:33;;;;;;;3.63;3.15;;;;;;;9.79;57.06;97655.75;6276036;22;20478;-79
2022/04/16 05:40:00;;;;;;;3.42;3.03;;;;;;;9.77;57.67;97650.69;6277135;22;20019;-79
2022/04/16 05:42:28;;;;;;;3.55;3.25;;;;;;;9.73;57.20;97648.53;6277731;22;20026;-79
2022/04/16 05:45:00;;;;;;;5.40;3.78;;;;;;;9.76;58.21;97658.69;6280369;22;20026;-80
2022/04/16 05:47:27;;;;;;;3.00;2.70;;;;;;;9.80;58.04;97662.63;6278158;22;20022;-80
2022/04/16 05:49:56;;;;;;;4.72;3.38;;;;;;;9.85;57.88;97669.00;6279887;22;20024;-79
2022/04/16 05:52:24;;;;;;;3.88;3.47;;;;;;;9.91;57.83;97667.59;6277346;22;20028;-79
2022/04/16 05:54:52;;;;;;;3.45;3.15;;;;;;;9.96;57.51;97673.16;6277288;22;20016;-79
2022/04/16 05:57:21;;;;;;;3.50;3.20;;;;;;;10.01;57.41;97670.09;6275686;22;20016;-79
2022/04/16 05:59:50;;;;;;;3.95;3.38;;;;;;;10.08;57.64;97678.97;6277025;22;20061;-79
2022/04/16 06:02:18;;;;;;;3.40;3.10;;;;;;;10.13;57.47;97676.72;6276645;22;20475;-79
2022/04/16 06:04:45;;;;;;;3.38;3.05;;;;;;;10.16;57.36;97676.41;6277905;22;20020;-79
2022/04/16 06:07:15;;;;;;;4.45;2.90;;;;;;;10.17;57.42;97677.25;6301668;22;20035;-80
2022/04/16 06:09:43;;;;;;;4.72;3.53;;;;;;;10.15;57.29;97671.38;6301185;22;20023;-80
2022/04/16 06:12:10;;;;;;;5.82;3.60;;;;;;;10.15;57.17;97684.41;6294852;22;20091;-79
2022/04/16 06:14:38;;;;;;;5.43;4.22;;;;;;;10.14;57.31;97685.34;6277688;22;20030;-79
2022/04/16 06:17:05;;;;;;;5.35;3.78;;;;;;;10.08;57.49;97689.41;6275847;22;20015;-79
2022/04/16 06:19:33;;;;;;;5.78;4.18;;;;;;;10.09;58.53;97686.63;6276636;22;20408;-79
2022/04/16 06:22:00;;;;;;;5.28;4.13;;;;;;;10.13;58.08;97687.16;6276771;22;20019;-80
2022/04/16 06:24:29;;;;;;;7.05;4.32;;;;;;;10.14;57.98;97690.56;6276667;22;20030;-79
2022/04/16 06:26:57;;;;;;;5.82;4.70;;;;;;;10.15;57.92;97689.63;6275487;22;20015;-79
2022/04/16 06:29:24;;;;;;;7.20;4.97;;;;;;;10.10;57.88;97693.50;6276973;22;20098;-79
2022/04/16 06:31:52;;;;;;;6.10;4.97;;;;;;;10.09;58.19;97699.66;6276648;22;20019;-79
2022/04/16 06:34:20;;;;;;;6.20;5.00;;;;;;;10.11;58.05;97696.91;6276705;22;20051;-79
2022/04/16 06:36:48;;;;;;;5.43;4.78;;;;;;;10.14;58.02;97694.00;6275684;22;20023;-78
2022/04/16 06:39:15;;;;;;;6.50;5.07;;;;;;;10.17;58.14;97692.91;6276523;22;20019;-79
2022/04/16 06:41:44;;;;;;;7.07;5.00;;;;;;;10.21;58.59;97705.47;6276435;22;20380;-79
2022/04/16 06:44:12;;;;;;;7.10;5.03;;;;;;;10.25;58.10;97688.53;6276047;22;20019;-79
2022/04/16 06:46:46;;;;;;;6.85;5.13;;;;;;;10.27;57.99;97691.78;6275065;22;20015;-79
2022/04/16 06:49:13;;;;;;;9.25;5.82;;;;;;;10.29;58.13;97686.47;6275949;22;20023;-79
2022/04/16 06:51:41;;;;;;;6.50;5.60;;;;;;;10.31;57.95;97694.97;6276537;22;20020;-79
2022/04/16 06:54:08;;;;;;;7.78;6.05;;;;;;;10.31;57.68;97695.78;6276062;22;20490;-79
2022/04/16 06:56:36;;;;;;;6.47;5.78;;;;;;;10.29;57.60;97702.94;6275460;22;20015;-79
2022/04/16 06:59:05;;;;;;;6.85;5.95;;;;;;;10.30;58.22;97701.16;6276308;22;20476;-79
2022/04/16 07:01:32;;;;;;;7.97;6.28;;;;;;;10.34;58.42;97699.03;6276487;22;20020;-79
2022/04/16 07:04:00;;;;;;;9.77;5.97;;;;;;;10.38;58.20;97700.38;6276734;22;20542;-79
2022/04/16 07:06:28;;;;;;;8.05;6.47;;;;;;;10.44;58.18;97702.38;6283843;22;20030;-79
2022/04/16 07:08:55;;;;;;;6.45;5.20;;;;;;;10.47;57.78;97708.13;6292469;22;20083;-79
2022/04/16 07:11:23;;;;;;;7.35;6.43;;;;;;;10.51;57.81;97701.59;6289027;22;20276;-80
2022/04/16 07:13:50;;;;;;;9.27;6.13;;;;;;;10.58;58.14;97707.00;6282855;22;20020;-79
2022/04/16 07:16:19;;;;;;;8.50;5.85;;;;;;;10.61;57.80;97711.94;6277082;22;20016;-80
2022/04/16 07:18:47;;;;;;;8.38;5.28;;;;;;;10.62;57.66;97707.53;6276833;22;20339;-79
2022/04/16 07:21:14;;;;;;;7.93;5.55;;;;;;;10.64;57.63;97710.81;6276440;22;20026;-79
2022/04/16 07:23:42;;;;;;;9.60;6.25;;;;;;;10.67;57.71;97708.72;6276253;22;20019;-79
2022/04/16 07:26:09;;;;;;;8.55;6.03;;;;;;;10.67;57.40;97716.56;6274673;22;20023;-79
2022/04/16 07:28:37;;;;;;;7.80;5.80;;;;;;;10.64;56.93;97719.44;6275852;22;20019;-79
2022/04/16 07:31:04;;;;;;;7.22;5.90;;;;;;;10.60;56.81;97719.91;6276218;22;20078;-79
2022/04/16 07:33:33;;;;;;;6.47;5.15;;;;;;;10.55;56.60;97728.22;6276640;22;20020;-79
2022/04/16 07:36:01;;;;;;;6.47;4.88;;;;;;;10.51;56.64;97726.88;6276584;22;20024;-80
2022/04/16 07:38:29;;;;;;;5.93;5.25;;;;;;;10.48;56.36;97740.25;6276251;22;20019;-80
2022/04/16 07:40:57;;;;;;;6.60;5.10;;;;;;;10.46;56.21;97739.56;6276124;22;20020;-79
2022/04/16 07:43:24;;;;;;;5.65;4.93;;;;;;;10.41;55.98;97737.41;6276561;22;20026;-79
2022/04/16 07:45:52;;;;;;;6.30;5.45;;;;;;;10.34;55.88;97731.16;6275501;22;20019;-79
2022/04/16 07:48:19;;;;;;;5.82;4.65;;;;;;;10.28;55.60;97729.16;6275441;22;20012;-79
2022/04/16 07:50:49;;;;;;;5.93;4.93;;;;;;;10.24;56.14;97739.06;6276202;22;20026;-80
2022/04/16 07:53:16;;;;;;;5.45;4.55;;;;;;;10.19;55.73;97738.69;6276182;22;20026;-79
2022/04/16 07:55:44;;;;;;;5.40;4.55;;;;;;;10.20;56.31;97737.72;6276295;22;20022;-80
2022/04/16 07:58:11;;;;;;;5.93;5.03;;;;;;;10.24;56.34;97736.44;6275407;22;20023;-79
2022/04/16 08:00:39;;;;;;;5.93;4.82;;;;;;;10.26;56.22;97737.13;6275781;22;20041;-79
2022/04/16 08:03:06;;;;;;;5.60;5.00;;;;;;;10.28;56.31;97726.53;6275882;22;20456;-79
2022/04/16 08:05:34;;;;;;;6.32;5.22;;;;;;;10.31;56.92;97732.28;6276971;22;20022;-80
2022/04/16 08:08:04;;;;;;;7.57;5.72;;;;;;;10.40;56.65;97740.16;6275410;22;20020;-79
2022/04/16 08:10:32;;;;;;;6.82;5.35;;;;;;;10.45;56.74;97733.53;6276743;22;20026;-79
2022/04/16 08:13:01;;;;;;;8.32;5.78;;;;;;;10.48;56.51;97733.22;6275911;22;20031;-79
2022/04/16 08:15:28;;;;;;;7.32;5.63;;;;;;;10.50;56.42;97735.69;6275876;22;20027;-79
2022/04/16 08:17:56;;;;;;;7.32;5.90;;;;;;;10.55;56.45;97737.84;6274232;22;20020;-79
2022/04/16 08:20:23;;;;;;;8.02;6.50;;;;;;;10.62;56.42;97742.28;6275855;22;20026;-79
2022/04/16 08:22:56;;;;;;;;;;;;;;;10.71;56.21;97756.19;6276355;22;20399;-79
2022/04/16 08:28:06;;;;;;;;;;;;;;;10.77;55.45;97759.97;6272263;22;20016;-79
2022/04/16 08:30:34;;;;;;;6.22;5.07;;;;;;;10.71;54.97;97762.25;6275663;22;19922;-80
2022/04/16 08:33:02;;;;;;;8.30;6.85;;;;;;;10.66;55.10;97771.50;6275697;22;20022;-80
2022/04/16 08:35:29;;;;;;;7.45;6.07;;;;;;;10.66;55.59;97766.28;6276015;22;20030;-79
2022/04/16 08:37:57;;;;;;;7.53;5.45;;;;;;;10.70;55.28;97772.81;6274816;22;20351;-79
2022/04/16 08:40:26;;;;;;;8.98;6.40;;;;;;;10.72;55.31;97776.91;6275540;22;20020;-79
2022/04/16 08:42:54;;;;;;;8.73;6.75;;;;;;;10.78;55.21;97785.09;6275688;22;20024;-79
2022/04/16 08:45:24;;;;;;;9.30;6.90;;;;;;;10.78;55.17;97780.72;6275960;22;20034;-79
2022/04/16 08:47:54;;;;;;;10.70;6.65;;;;;;;10.80;55.24;97785.75;6275242;22;20042;-79
2022/04/16 08:50:21;;;;;;;7.75;5.93;;;;;;;10.79;54.95;97787.56;6275873;22;20020;-79
2022/04/16 08:52:49;;;;;;;8.07;6.30;;;;;;;10.79;54.65;97791.97;6275497;22;20016;-79
2022/04/16 08:55:17;;;;;;;8.07;6.45;;;;;;;10.75;55.07;97791.44;6275641;22;20474;-79
2022/04/16 08:57:45;;;;;;;8.75;7.22;;;;;;;10.74;55.34;97789.81;6274978;22;20022;-79
2022/04/16 09:00:14;;;;;;;11.25;7.78;;;;;;;10.74;55.41;97789.00;6277340;22;20020;-79
2022/04/16 09:02:51;;;;;;;8.20;6.43;;;;;;;10.76;55.37;97797.47;6277054;22;20476;-79
2022/04/16 09:05:20;;;;;;;8.32;6.22;;;;;;;10.76;54.83;97792.25;6277645;22;20020;-79
2022/04/16 09:07:48;;;;;;;6.50;5.65;;;;;;;10.74;54.67;97800.25;6276375;22;20026;-79
2022/04/16 09:10:17;;;;;;;8.27;6.15;;;;;;;10.72;54.38;97797.78;6276812;22;20504;-79
2022/04/16 09:12:49;;;;;;;8.90;6.97;;;;;;;10.72;54.77;97800.41;6277470;22;20020;-79
2022/04/16 09:15:17;;;;;;;6.60;5.15;;;;;;;10.75;54.55;97799.28;6276939;22;20027;-79
2022/04/16 09:17:45;;;;;;;7.05;5.55;;;;;;;10.84;54.47;97800.16;6276517;22;20364;-79
2022/04/16 09:20:13;;;;;;;7.93;5.40;;;;;;;10.94;54.22;97803.47;6277249;22;20024;-79
2022/04/16 09:22:48;;;;;;;5.80;4.60;;;;;;;11.05;53.73;97811.03;6277191;22;20055;-79
2022/04/16 09:25:18;;;;;;;6.75;5.57;;;;;;;11.11;53.45;97801.78;6277425;22;20027;-79
2022/04/16 09:27:49;;;;;;;6.28;5.03;;;;;;;11.17;53.39;97800.31;6276759;22;20019;-79
2022/04/16 09:30:22;;;;;;;7.55;4.85;;;;;;;11.23;53.14;97810.16;6279887;22;20024;-80
2022/04/16 09:32:52;;;;;;;5.40;4.28;;;;;;;11.29;53.18;97804.31;6277312;22;20020;-79
2022/04/16 09:35:30;;;;;;;6.93;5.07;;;;;;;11.48;54.06;97808.50;6276763;22;20019;-79
2022/04/16 09:38:14;;;;;;;12.23;5.22;;;;;;;11.65;52.53;97810.16;6277829;22;20020;-79
2022/04/16 09:40:45;;;;;;;5.32;4.82;;;;;;;11.74;51.91;97804.00;6277125;22;20471;-80
2022/04/16 09:43:15;;;;;;;6.82;4.95;;;;;;;11.75;51.51;97810.03;6277423;22;20026;-79
2022/04/16 09:45:43;;;;;;;5.00;4.25;;;;;;;11.78;51.79;97809.69;6277533;22;20024;-80
2022/04/16 09:48:13;;;;;;;5.78;4.78;;;;;;;11.84;51.42;97801.22;6277127;22;20061;-80
2022/04/16 09:50:42;;;;;;;6.65;4.32;;;;;;;11.88;51.21;97810.41;6277560;22;20024;-79
2022/04/16 09:53:11;;;;;;;5.10;4.60;;;;;;;11.84;51.07;97809.06;6277291;22;20435;-79
2022/04/16 09:55:41;;;;;;;5.53;4.10;;;;;;;11.79;51.29;97803.50;6277206;22;20102;-79
2022/04/16 09:58:09;;;;;;;7.28;5.78;;;;;;;11.77;51.46;97808.09;6275907;22;20020;-79
2022/04/16 10:00:39;;;;;;;6.57;4.72;;;;;;;11.77;51.35;97807.28;6276942;22;20026;-79
2022/04/16 10:03:27;;;;;;;6.38;4.95;;;;;;;11.73;51.50;97812.78;6276927;22;20468;-80
2022/04/16 10:05:56;;;;;;;7.13;4.72;;;;;;;11.69;51.42;97810.66;6276021;22;20405;-79
2022/04/16 10:08:27;;;;;;;5.90;4.57;;;;;;;11.65;51.40;97815.38;6275789;22;20020;-75
2022/04/16 10:10:57;;;;;;;5.90;4.55;;;;;;;11.65;51.48;97814.56;6282054;22;20020;-76
2022/04/16 10:13:25;;;;;;;6.38;4.88;;;;;;;11.64;51.58;97823.41;6283294;22;20019;-79
2022/04/16 10:16:04;;;;;;;7.78;5.75;;;;;;;11.60;51.38;97827.31;6281859;22;20027;-78
2022/04/16 10:18:34;;;;;;;7.80;6.22;;;;;;;11.51;51.50;97827.25;6282825;22;20095;-76
2022/04/16 10:21:03;;;;;;;8.43;6.25;;;;;;;11.44;51.56;97828.88;6283180;22;20352;-78
2022/04/16 10:23:39;;;;;;;9.63;7.32;;;;;;;11.38;51.78;97834.72;6282714;22;20016;-77
2022/04/16 10:26:09;;;;;;;10.83;7.60;;;;;;;11.33;51.79;97837.00;6281001;22;20030;-77
2022/04/16 10:28:42;;;;;;;10.50;7.47;;;;;;;11.24;51.68;97843.13;6282844;22;20019;-78
2022/04/16 10:31:21;;;;;;;;;;;;;;;11.19;52.08;97840.16;6283201;22;20020;-76
2022/04/16 10:34:02;;;;;;;8.82;6.60;;;;;;;11.10;52.50;97836.69;6283045;22;19915;-78
2022/04/16 10:36:36;;;;;;;11.40;8.52;;;;;;;11.07;52.26;97837.81;6280911;22;20033;-79
2022/04/16 10:39:13;;;;;;;12.13;8.57;;;;;;;11.03;52.35;97839.09;6283386;22;20018;-78
2022/04/16 10:41:41;;;;;;;11.15;8.23;;;;;;;10.99;52.15;97845.59;6283629;22;20026;-78
2022/04/16 10:44:10;;;;;;;12.27;9.30;;;;;;;10.96;52.63;97840.69;6283468;22;20389;-78
2022/04/16 10:46:44;;;;;;;9.85;8.30;;;;;;;11.00;52.63;97839.41;6282343;22;20102;-77
2022/04/16 10:49:13;;;;;;;9.73;7.53;;;;;;;11.04;52.43;97843.38;6282607;22;20016;-76
2022/04/16 10:51:40;;;;;;;12.50;8.35;;;;;;;11.10;51.94;97841.91;6282425;22;20030;-77
2022/04/16 10:54:09;;;;;;;11.07;7.85;;;;;;;11.14;51.56;97838.84;6283337;22;20020;-77
2022/04/16 10:56:39;;;;;;;11.18;7.85;;;;;;;11.25;51.73;97837.75;6279942;22;20019;-76
2022/04/16 10:59:08;;;;;;;10.32;7.78;;;;;;;11.45;51.77;97840.13;6281253;22;20030;-76
2022/04/16 11:01:36;;;;;;;11.20;7.88;;;;;;;11.62;51.31;97836.63;6281275;22;20020;-78
2022/04/16 11:04:15;;;;;;;10.38;7.38;;;;;;;11.74;50.54;97835.38;6281440;22;20031;-77
2022/04/16 11:06:45;;;;;;;10.15;7.38;;;;;;;11.85;50.66;97842.09;6281347;22;20083;-78
2022/04/16 11:09:13;;;;;;;13.30;7.40;;;;;;;11.98;50.74;97844.25;6282012;22;20035;-78
2022/04/16 11:11:43;;;;;;;8.10;6.47;;;;;;;12.10;49.94;97836.94;6284785;22;20023;-78
2022/04/16 11:14:11;;;;;;;8.75;7.15;;;;;;;12.15;49.15;97837.28;6299792;22;20047;-76
2022/04/16 11:16:45;;;;;;;7.60;6.13;;;;;;;12.25;49.01;97835.34;6299168;22;20013;-77
2022/04/16 11:19:17;;;;;;;7.05;6.18;;;;;;;12.47;48.34;97835.69;6286623;22;20022;-79
2022/04/16 11:21:45;;;;;;;7.45;5.65;;;;;;;12.81;48.35;97827.63;6290980;22;20020;-77
2022/04/16 11:24:14;;;;;;;9.50;6.43;;;;;;;13.15;47.43;97823.97;6287444;22;20020;-77
2022/04/16 11:35:08;;;;;;;7.45;5.95;;;;;;;14.12;45.54;97821.09;6227603;22;20026;-78
2022/04/16 11:37:36;;;;;;;11.82;6.13;;;;;;;14.13;45.37;97822.75;6282488;22;20020;-78
2022/04/16 11:40:05;;;;;;;6.45;5.22;;;;;;;14.12;44.84;97831.59;6283880;22;20018;-76
2022/04/16 11:42:34;;;;;;;6.97;5.82;;;;;;;14.08;44.82;97820.66;6284527;22;20027;-78
2022/04/16 11:45:03;;;;;;;7.68;5.28;;;;;;;14.09;44.54;97821.47;6283785;22;20086;-77
2022/04/16 11:47:37;;;;;;;6.38;5.07;;;;;;;14.06;43.91;97822.63;6283435;22;20094;-79
2022/04/16 11:50:08;;;;;;;4.82;4.32;;;;;;;14.11;44.44;97819.50;6284218;22;20070;-77
2022/04/16 11:52:37;;;;;;;5.28;4.78;;;;;;;14.13;44.21;97817.50;6284891;22;20024;-80
2022/04/16 11:55:06;;;;;;;7.10;4.85;;;;;;;14.17;44.91;97814.34;6283972;22;20463;-78
2022/04/16 11:57:34;;;;;;;4.82;4.30;;;;;;;14.24;43.51;97814.47;6283048;22;20023;-77
2022/04/16 12:00:05;;;;;;;4.95;4.10;;;;;;;14.26;43.34;97807.25;6282330;22;20550;-78
2022/04/16 12:02:34;;;;;;;5.47;4.57;;;;;;;14.29;43.54;97801.63;6283628;22;20020;-79
2022/04/16 12:05:11;;;;;;;5.35;4.60;;;;;;;14.34;43.27;97803.72;6284631;22;20015;-78
2022/04/16 12:07:41;;;;;;;7.03;4.45;;;;;;;14.38;43.77;97800.56;6283146;22;20026;-78